Time;durP1;ratioP1;P1;durP2;ratioP2;P2;SDS_P1;SDS_P2;PMS_P1;PMS_P2;Temp;Humidity;BMP_temperature;BMP_pressure;BME280_temperature;BME280_humidity;BME280_pressure;Samples;Min_cycle;Max_cycle;Signal;HPM_P1;HPM_P2
2021/09/30 00:01:00;;;;;;;;;;;;;;;;;;;;;
2021/09/30 00:04:25;;;;;;;;;;;;;;;;;;;;;
2021/09/30 00:07:19;;;;;;;;;;;;;;;;;;;;;
2021/09/30 00:10:21;;;;;;;;;;;;;;;;;;;;;
2021/09/30 00:33:17;;;;;;;;;;;;;;;;;;;;;
2021/09/30 00:46:06;;;;;;;;;;;;;;;;;;;;;
2021/09/30 02:25:28;;;;;;;;;;;;;;;;;;;;;
2021/09/30 03:00:12;;;;;;;;;;;;;;;;;;;;;
2021/09/30 03:03:08;;;;;;;;;;;;;;;;;;;;;
2021/09/30 03:05:56;;;;;;;;;;;;;;;;;;;;;
2021/09/30 03:08:47;;;;;;;;;1.00;1.00;;;;;13.86;55.68;102362.13;4983601;28;72970;-64
2021/09/30 03:11:34;;;;;;;;;;;;;;;;;;;;;
2021/09/30 03:14:17;;;;;;;;;1.50;1.00;;;;;13.90;55.98;102396.94;4981906;28;72809;-64
2021/09/30 03:17:18;;;;;;;;;3.00;1.00;;;;;13.68;55.63;102364.28;4982660;28;45450;-64
2021/09/30 03:23:10;;;;;;;;;;;;;;;;;;;;;
2021/09/30 03:25:49;;;;;;;;;;;;;;;;;;;;;
2021/09/30 03:28:31;;;;;;;;;1.00;1.00;;;;;13.57;55.97;102384.19;4981667;28;75243;-64
2021/09/30 03:31:48;;;;;;;;;;;;;;;;;;;;;
2021/09/30 03:34:23;;;;;;;;;;;;;;;;;;;;;
2021/09/30 03:37:19;;;;;;;;;0.25;0.25;;;;;13.65;56.04;102380.44;4982104;28;72714;-64
2021/09/30 03:40:07;;;;;;;;;;;;;;;;;;;;;
2021/09/30 03:42:48;;;;;;;;;;;;;;;;;;;;;
2021/09/30 03:45:25;;;;;;;;;1.75;1.00;;;;;13.57;56.38;102374.31;4970564;28;68903;-64
2021/09/30 03:48:19;;;;;;;;;;;;;;;;;;;;;
2021/09/30 03:51:30;;;;;;;;;;;;;;;;;;;;;
2021/09/30 03:54:33;;;;;;;;;0.00;0.00;;;;;13.42;56.19;102367.44;4980477;28;73425;-64
2021/09/30 03:57:21;;;;;;;;;;;;;;;;;;;;;
2021/09/30 04:00:39;;;;;;;;;;;;;;;;;;;;;
2021/09/30 04:03:45;;;;;;;;;2.00;0.50;;;;;13.52;56.46;102424.50;4968491;28;76331;-64
2021/09/30 04:07:02;;;;;;;;;;;;;;;;;;;;;
2021/09/30 04:09:27;;;;;;;;;1.50;0.25;;;;;13.36;56.41;102407.78;4974273;28;45326;-64
2021/09/30 04:15:11;;;;;;;;;2.50;1.00;;;;;13.32;56.92;102419.47;4968236;28;46460;-64
2021/09/30 04:17:54;;;;;;;;;2.00;1.00;;;;;13.23;56.40;102401.72;4981844;28;45373;-64
2021/09/30 04:20:37;;;;;;;;;;;;;;;;;;;;;
2021/09/30 04:23:23;;;;;;;;;;;;;;;;;;;;;
2021/09/30 04:26:05;;;;;;;;;;;;;;;;;;;;;
2021/09/30 04:28:43;;;;;;;;;;;;;;;;;;;;;
2021/09/30 04:31:29;;;;;;;;;;;;;;;;;;;;;
2021/09/30 04:34:18;;;;;;;;;3.50;1.00;;;;;13.27;56.88;102434.72;4977696;28;74012;-64
2021/09/30 04:36:58;;;;;;;;;;;;;;;;;;;;;
2021/09/30 04:39:26;;;;;;;;;1.00;1.00;;;;;13.11;56.97;102409.94;4980655;28;71570;-63
2021/09/30 04:41:51;;;;;;;;;3.00;1.25;;;;;12.94;56.87;102386.09;4983680;28;45512;-64
2021/09/30 04:44:22;;;;;;;;;3.00;2.00;;;;;13.22;57.09;102432.13;4980932;28;45449;-64
2021/09/30 04:46:48;;;;;;;;;1.75;1.75;;;;;12.93;57.02;102377.19;4981148;28;46301;-64
2021/09/30 04:49:13;;;;;;;;;2.00;1.00;;;;;12.90;56.77;102371.88;4963216;28;45705;-64
2021/09/30 04:51:41;;;;;;;;;1.00;1.00;;;;;13.00;56.79;102387.78;4979727;28;45473;-64
2021/09/30 04:54:09;;;;;;;;;1.00;1.00;;;;;13.01;57.08;102389.56;4980127;28;46789;-64
2021/09/30 04:56:35;;;;;;;;;2.00;2.00;;;;;12.95;57.10;102374.50;4980665;28;46261;-64
2021/09/30 04:59:02;;;;;;;;;2.25;2.00;;;;;13.10;57.11;102402.84;4980908;28;45527;-64
2021/09/30 05:01:28;;;;;;;;;3.00;3.00;;;;;13.07;57.22;102392.16;4981148;28;45252;-64
2021/09/30 05:03:53;;;;;;;;;1.75;1.75;;;;;13.02;57.47;102392.22;4981238;28;45558;-64
2021/09/30 05:06:19;;;;;;;;;2.00;2.00;;;;;13.20;57.06;102414.28;4981106;28;45756;-64
2021/09/30 05:08:48;;;;;;;;;2.00;2.00;;;;;13.05;57.48;102404.72;4983190;28;45448;-64
2021/09/30 05:11:14;;;;;;;;;2.25;2.00;;;;;12.81;57.03;102368.44;4980129;28;45313;-64
2021/09/30 05:13:42;;;;;;;;;3.25;2.50;;;;;13.21;57.20;102435.69;4980709;28;45464;-64
2021/09/30 05:16:11;;;;;;;;;3.00;2.25;;;;;13.13;57.34;102422.44;4980860;28;46144;-64
2021/09/30 05:18:40;;;;;;;;;2.75;2.75;;;;;13.00;57.51;102406.56;4980742;28;47020;-64
2021/09/30 05:21:06;;;;;;;;;2.00;2.00;;;;;13.04;57.52;102411.84;4965381;28;45366;-64
2021/09/30 05:24:37;;;;;;;;;;;;;;;;;;;;;
2021/09/30 06:04:43;;;;;;;;;2.75;2.00;;;;;12.72;57.50;102437.34;4983814;28;45631;-73
2021/09/30 06:12:13;;;;;;;;;3.00;2.25;;;;;12.82;57.71;102454.19;4999904;28;45688;-72
2021/09/30 06:14:41;;;;;;;;;1.50;1.50;;;;;12.63;57.88;102407.13;5000282;28;45416;-73
2021/09/30 06:17:07;;;;;;;;;2.75;2.75;;;;;12.60;57.81;102408.94;4998629;28;45300;-73
2021/09/30 06:19:32;;;;;;;;;2.25;2.00;;;;;12.87;57.69;102452.31;5000094;28;45512;-73
2021/09/30 06:21:58;;;;;;;;;3.00;2.75;;;;;12.71;57.83;102419.53;4989845;28;45440;-73
2021/09/30 06:24:25;;;;;;;;;4.25;3.00;;;;;12.72;57.87;102421.28;4991604;28;45362;-64
2021/09/30 06:26:50;;;;;;;;;4.00;2.75;;;;;12.90;57.75;102452.28;5002099;28;45279;-65
2021/09/30 06:29:16;;;;;;;;;3.00;2.75;;;;;12.89;57.83;102450.50;4998063;28;45540;-66
2021/09/30 06:31:42;;;;;;;;;2.00;2.00;;;;;12.67;57.60;102420.44;4999744;28;46301;-66
2021/09/30 06:34:07;;;;;;;;;3.00;3.00;;;;;12.77;57.89;102443.53;4981643;28;45397;-66
2021/09/30 06:36:34;;;;;;;;;2.75;1.75;;;;;12.68;57.82;102427.59;4998615;28;45460;-66
2021/09/30 06:38:59;;;;;;;;;2.00;2.00;;;;;12.63;57.80;102424.09;4979282;28;45547;-66
2021/09/30 06:41:25;;;;;;;;;5.00;3.50;;;;;12.74;57.83;102445.38;4995041;28;47166;-66
2021/09/30 06:43:51;;;;;;;;;4.25;3.00;;;;;12.56;57.80;102409.00;4975308;28;45553;-66
2021/09/30 06:46:16;;;;;;;;;3.00;2.75;;;;;12.72;57.92;102442.72;4992968;28;45526;-65
2021/09/30 06:48:42;;;;;;;;;4.00;2.25;;;;;12.71;58.15;102435.59;4981829;28;45876;-65
2021/09/30 06:51:09;;;;;;;;;2.75;2.75;;;;;12.71;58.26;102426.66;4992841;28;46571;-65
2021/09/30 06:53:34;;;;;;;;;4.25;4.25;;;;;12.80;58.30;102442.59;4980879;28;45649;-64
2021/09/30 06:56:03;;;;;;;;;5.00;3.50;;;;;12.79;58.14;102432.78;4981754;28;46037;-64
2021/09/30 06:58:29;;;;;;;;;3.50;3.50;;;;;12.83;57.95;102439.88;4989748;28;45515;-65
2021/09/30 07:00:57;;;;;;;;;5.00;3.00;;;;;12.73;57.76;102422.16;4990652;28;46480;-64
2021/09/30 07:03:28;;;;;;;;;2.00;2.00;;;;;12.78;58.21;102439.06;4977095;28;45837;-65
2021/09/30 07:05:54;;;;;;;;;3.00;3.00;;;;;12.70;57.87;102414.19;4977970;28;45651;-64
2021/09/30 07:08:21;;;;;;;;;2.25;2.00;;;;;12.76;57.91;102427.47;4982180;28;45810;-64
2021/09/30 07:10:47;;;;;;;;;2.25;2.25;;;;;12.77;58.27;102418.53;4999553;28;45607;-64
2021/09/30 07:13:13;;;;;;;;;3.25;3.00;;;;;12.87;58.43;102433.56;4994718;28;45516;-65
2021/09/30 07:15:39;;;;;;;;;7.00;4.00;;;;;12.66;58.18;102389.19;4981781;28;45350;-65
2021/09/30 07:18:12;;;;;;;;;4.00;4.00;;;;;12.68;58.34;102387.41;4998982;28;45555;-64
2021/09/30 07:20:39;;;;;;;;;4.50;4.00;;;;;12.90;57.97;102427.28;4979519;28;46986;-65
2021/09/30 07:23:05;;;;;;;;;5.50;4.25;;;;;12.96;58.16;102430.75;4995419;28;45404;-65
2021/09/30 07:25:30;;;;;;;;;3.75;3.50;;;;;12.94;58.28;102432.53;4981712;28;45280;-65
2021/09/30 07:27:56;;;;;;;;;4.00;3.50;;;;;12.83;57.91;102415.78;4998899;28;45468;-65
2021/09/30 07:30:22;;;;;;;;;3.75;3.75;;;;;12.97;58.15;102445.91;4990293;28;45364;-65
2021/09/30 07:32:48;;;;;;;;;3.00;3.00;;;;;13.02;58.07;102447.66;4982530;28;45433;-64
2021/09/30 07:35:16;;;;;;;;;5.00;3.25;;;;;12.98;58.05;102445.00;5002859;28;45313;-64
2021/09/30 07:37:41;;;;;;;;;3.00;3.00;;;;;13.00;58.62;102454.81;4984485;28;45411;-64
2021/09/30 07:40:08;;;;;;;;;4.00;4.00;;;;;12.96;58.00;102446.84;4996145;28;48564;-65
2021/09/30 07:42:34;;;;;;;;;4.00;4.00;;;;;12.95;58.08;102449.53;5007163;28;45179;-65
2021/09/30 07:44:59;;;;;;;;;5.00;5.00;;;;;12.76;58.19;102414.06;4984880;28;45335;-65
2021/09/30 07:47:25;;;;;;;;;5.00;4.50;;;;;12.94;58.08;102453.13;4968029;28;45565;-65
2021/09/30 07:49:51;;;;;;;;;2.00;1.00;;;;;12.83;58.21;102430.94;4984405;28;46234;-65
2021/09/30 07:52:17;;;;;;;;;4.00;4.00;;;;;12.75;58.44;102401.59;4986090;28;45752;-64
2021/09/30 07:54:42;;;;;;;;;5.25;5.00;;;;;12.94;58.29;102431.66;5001713;28;45475;-65
2021/09/30 07:57:09;;;;;;;;;4.75;4.75;;;;;12.87;58.15;102428.19;5001440;28;45428;-65
2021/09/30 07:59:35;;;;;;;;;6.75;4.00;;;;;12.95;58.46;102439.69;5001701;28;45867;-65
2021/09/30 08:02:00;;;;;;;;;3.50;3.50;;;;;12.82;58.42;102416.66;4987200;28;45497;-65
2021/09/30 08:04:26;;;;;;;;;8.00;4.75;;;;;12.81;58.59;102406.84;4987826;28;45329;-66
2021/09/30 08:06:51;;;;;;;;;6.75;4.00;;;;;12.83;58.56;102399.69;4991113;28;45156;-65
2021/09/30 08:09:19;;;;;;;;;6.75;4.75;;;;;13.12;58.60;102449.28;4999045;28;45405;-66
2021/09/30 08:11:45;;;;;;;;;5.25;5.25;;;;;13.16;58.52;102446.53;4998217;28;45519;-66
2021/09/30 08:14:11;;;;;;;;;6.50;5.00;;;;;13.17;58.33;102444.72;5000441;28;45379;-66
2021/09/30 08:16:36;;;;;;;;;3.50;3.50;;;;;13.23;58.43;102444.63;4999946;28;45796;-66
2021/09/30 08:19:02;;;;;;;;;6.00;6.00;;;;;13.06;58.49;102415.38;4998973;28;47034;-66
2021/09/30 08:21:28;;;;;;;;;7.00;4.00;;;;;13.29;58.67;102452.56;4982496;28;46058;-66
2021/09/30 08:23:54;;;;;;;;;5.25;4.50;;;;;13.07;58.38;102414.47;4983551;28;45508;-66
2021/09/30 08:26:19;;;;;;;;;6.50;6.50;;;;;13.10;58.66;102417.13;5001818;28;45425;-65
2021/09/30 08:28:50;;;;;;;;;7.00;5.00;;;;;13.20;58.58;102416.94;5001213;28;46166;-65
2021/09/30 08:31:16;;;;;;;;;5.00;3.75;;;;;13.38;58.74;102448.91;5001812;28;45506;-66
2021/09/30 08:33:43;;;;;;;;;4.00;4.00;;;;;13.37;58.95;102440.88;4984164;28;45462;-65
2021/09/30 08:36:12;;;;;;;;;7.25;5.00;;;;;13.38;58.75;102430.13;5000423;28;45353;-66
2021/09/30 08:38:39;;;;;;;;;7.00;6.50;;;;;13.57;58.79;102459.31;5001149;28;45396;-67
2021/09/30 08:41:04;;;;;;;;;7.00;6.00;;;;;13.57;59.19;102451.25;4983446;28;46140;-66
2021/09/30 08:43:30;;;;;;;;;6.00;6.00;;;;;13.37;58.73;102409.56;4987233;28;45329;-66
2021/09/30 08:45:56;;;;;;;;;7.25;5.00;;;;;13.59;58.72;102442.25;4983179;28;45502;-66
2021/09/30 08:48:22;;;;;;;;;4.00;4.00;;;;;13.62;58.70;102430.59;4999948;28;48673;-66
2021/09/30 08:50:48;;;;;;;;;6.00;4.00;;;;;13.66;58.85;102421.56;5000948;28;45452;-66
2021/09/30 08:53:14;;;;;;;;;4.25;4.25;;;;;13.64;58.74;102402.78;4985633;28;45393;-66
2021/09/30 08:55:40;;;;;;;;;3.00;3.00;;;;;13.90;58.61;102441.69;4989928;28;45360;-66
2021/09/30 08:58:08;;;;;;;;;9.50;4.00;;;;;13.60;58.64;102378.72;5000273;28;46284;-66
2021/09/30 09:00:36;;;;;;;;;4.00;4.00;;;;;13.85;58.61;102400.63;5000974;28;45353;-66
2021/09/30 09:03:01;;;;;;;;;4.50;3.25;;;;;14.05;58.68;102429.78;5001047;28;45281;-66
2021/09/30 09:05:27;;;;;;;;;5.50;2.00;;;;;14.15;58.16;102420.63;4995479;28;45408;-66
2021/09/30 09:07:56;;;;;;;;;2.00;2.00;;;;;14.10;58.19;102401.03;5002847;28;46561;-66
2021/09/30 09:10:23;;;;;;;;;3.50;2.25;;;;;14.30;57.66;102416.72;4999981;28;45696;-66
2021/09/30 09:13:22;;;;;;;;;3.50;3.00;;;;;14.36;57.54;102421.94;4995092;28;45310;-66
2021/09/30 09:15:57;;;;;;;;;2.75;2.75;;;;;14.32;57.06;102390.72;4991302;28;45516;-66
2021/09/30 09:18:26;;;;;;;;;3.00;2.50;;;;;14.40;57.43;102403.94;4982771;28;47896;-66
2021/09/30 09:21:08;;;;;;;;;2.25;2.00;;;;;14.54;57.77;102406.34;4999785;28;45478;-66
2021/09/30 09:23:53;;;;;;;;;4.00;2.25;;;;;14.40;57.61;102379.78;4971494;28;45454;-66
2021/09/30 09:26:21;;;;;;;;;1.75;1.00;;;;;14.61;57.06;102405.31;4999365;28;45461;-65
2021/09/30 09:29:02;;;;;;;;;2.50;1.00;;;;;14.72;56.92;102403.28;4979854;28;47436;-65
2021/09/30 09:31:33;;;;;;;;;1.50;1.50;;;;;14.78;56.54;102410.31;4999081;28;45573;-66
2021/09/30 09:34:18;;;;;;;;;4.25;1.75;;;;;14.85;56.37;102406.56;5000584;28;45283;-67
2021/09/30 09:36:47;;;;;;;;;1.00;1.00;;;;;14.64;56.02;102357.75;4998960;28;46097;-66
2021/09/30 09:39:13;;;;;;;;;1.25;1.25;;;;;14.80;56.38;102371.72;4998839;28;46232;-66
2021/09/30 09:41:39;;;;;;;;;1.75;1.00;;;;;15.04;55.96;102404.31;5005572;28;45420;-66
2021/09/30 09:44:06;;;;;;;;;4.00;1.75;;;;;14.89;55.68;102373.31;4966963;28;45426;-66
2021/09/30 09:46:34;;;;;;;;;2.00;2.00;;;;;15.14;55.63;102403.16;5000391;28;45318;-66
2021/09/30 09:49:09;;;;;;;;;2.50;0.50;;;;;14.92;55.55;102358.91;4999743;28;45437;-66
2021/09/30 09:51:46;;;;;;;;;2.00;1.00;;;;;15.25;54.95;102407.38;5000546;28;45435;-66
2021/09/30 09:54:14;;;;;;;;;1.25;1.00;;;;;15.08;54.78;102368.34;4998346;28;45449;-66
2021/09/30 09:56:41;;;;;;;;;1.00;0.00;;;;;15.16;54.70;102369.03;4998920;28;45473;-66
2021/09/30 09:59:07;;;;;;;;;0.75;0.75;;;;;15.22;54.11;102381.44;4998768;28;45378;-66
2021/09/30 10:01:40;;;;;;;;;3.50;0.75;;;;;15.45;54.32;102409.53;4999477;28;45338;-65
2021/09/30 10:04:07;;;;;;;;;0.75;0.00;;;;;15.44;54.17;102397.03;4981739;28;45691;-65
2021/09/30 10:06:33;;;;;;;;;0.75;0.75;;;;;15.51;53.63;102385.19;4993436;28;45451;-65
2021/09/30 10:09:01;;;;;;;;;1.75;1.00;;;;;15.54;53.25;102380.59;5005381;28;45421;-66
2021/09/30 10:11:27;;;;;;;;;3.75;2.00;;;;;15.34;53.40;102334.50;5000181;28;45349;-65
2021/09/30 10:14:00;;;;;;;;;2.00;0.00;;;;;15.56;53.19;102362.59;4973535;28;46124;-65
2021/09/30 10:16:27;;;;;;;;;2.00;2.00;;;;;15.73;53.21;102380.94;4999728;28;45361;-65
2021/09/30 10:19:02;;;;;;;;;0.00;0.00;;;;;15.77;52.76;102378.22;4999656;28;46398;-65
2021/09/30 10:21:29;;;;;;;;;1.00;1.00;;;;;15.84;52.92;102386.09;4997625;28;46018;-64
2021/09/30 10:24:01;;;;;;;;;0.50;0.00;;;;;15.87;52.26;102383.31;4980736;28;45469;-66
2021/09/30 10:26:44;;;;;;;;;0.00;0.00;;;;;15.86;53.15;102373.47;4999884;28;45415;-67
2021/09/30 10:29:30;;;;;;;;;2.00;0.50;;;;;15.94;52.80;102375.94;4993915;28;45500;-64
2021/09/30 10:31:57;;;;;;;;;2.00;1.00;;;;;15.86;52.71;102343.84;4997290;28;45416;-65
2021/09/30 10:34:31;;;;;;;;;1.00;1.00;;;;;15.91;52.19;102346.41;4999213;28;45954;-72
2021/09/30 10:37:16;;;;;;;;;1.25;0.00;;;;;16.01;52.29;102355.97;4979177;28;45433;-73
2021/09/30 10:39:43;;;;;;;;;2.00;0.00;;;;;16.14;52.13;102375.34;4997381;28;45571;-73
2021/09/30 10:42:53;;;;;;;;;1.00;1.00;;;;;16.18;52.16;102366.25;4994147;28;45662;-66
2021/09/30 10:45:20;;;;;;;;;0.00;0.00;;;;;16.17;51.82;102351.03;4973078;28;45537;-65
2021/09/30 10:47:48;;;;;;;;;0.50;0.50;;;;;16.20;51.94;102361.69;4983523;28;46029;-66
2021/09/30 10:50:13;;;;;;;;;0.25;0.00;;;;;16.24;51.14;102367.88;4991244;28;45941;-66
2021/09/30 10:52:53;;;;;;;;;0.00;0.00;;;;;16.08;51.75;102341.38;4999077;28;45563;-65
2021/09/30 10:55:21;;;;;;;;;0.00;0.00;;;;;16.25;51.31;102361.53;4995022;28;45187;-66
2021/09/30 10:58:10;;;;;;;;;0.00;0.00;;;;;16.15;51.53;102339.38;4997543;28;45557;-65
2021/09/30 11:00:36;;;;;;;;;1.00;0.00;;;;;16.37;50.29;102354.91;4995430;28;45452;-65
2021/09/30 11:03:01;;;;;;;;;0.00;0.00;;;;;16.41;50.59;102353.88;4980771;28;45364;-65
2021/09/30 11:05:32;;;;;;;;;1.00;1.00;;;;;16.31;50.19;102323.66;4993920;28;46299;-65
2021/09/30 11:08:17;;;;;;;;;1.50;1.00;;;;;16.47;50.47;102337.50;4997747;28;45695;-66
2021/09/30 11:11:01;;;;;;;;;1.25;1.00;;;;;16.53;50.18;102323.84;4968395;28;47580;-66
2021/09/30 11:13:29;;;;;;;;;0.00;0.00;;;;;16.46;50.31;102308.81;4986223;28;45873;-65
2021/09/30 11:16:14;;;;;;;;;0.00;0.00;;;;;16.58;50.29;102324.56;4994802;28;45520;-66
2021/09/30 11:18:45;;;;;;;;;0.00;0.00;;;;;16.61;50.25;102329.88;4996188;28;45477;-65
2021/09/30 11:21:32;;;;;;;;;0.00;0.00;;;;;16.65;50.13;102318.03;4980726;28;45726;-66
2021/09/30 11:24:10;;;;;;;;;0.25;0.25;;;;;16.46;49.86;102281.84;4995550;28;46232;-66
2021/09/30 11:26:55;;;;;;;;;1.00;1.00;;;;;16.71;49.74;102316.97;4998887;28;45839;-67
2021/09/30 11:29:24;;;;;;;;;1.25;0.00;;;;;16.73;49.01;102308.84;4997087;28;45818;-66
2021/09/30 11:31:58;;;;;;;;;2.00;1.00;;;;;16.76;49.28;102303.34;4996699;28;46670;-67
2021/09/30 11:37:52;;;;;;;;;0.00;0.00;;;;;16.73;49.12;102281.88;4987955;28;45478;-66
2021/09/30 11:40:23;;;;;;;;;0.00;0.00;;;;;16.75;49.30;102280.00;4973379;28;45512;-66
2021/09/30 11:42:54;;;;;;;;;0.25;0.25;;;;;16.72;49.12;102272.88;4989144;28;45629;-66
2021/09/30 11:45:31;;;;;;;;;0.25;0.00;;;;;16.61;48.66;102256.22;4989225;28;46280;-66
2021/09/30 11:48:03;;;;;;;;;1.00;1.00;;;;;16.84;48.91;102279.69;4972090;28;45672;-66
2021/09/30 11:50:36;;;;;;;;;0.00;0.00;;;;;16.77;48.17;102253.84;4988922;28;46009;-66
2021/09/30 11:53:13;;;;;;;;;0.00;0.00;;;;;16.83;47.78;102261.75;4989811;28;45492;-66
2021/09/30 11:55:41;;;;;;;;;1.25;0.75;;;;;16.95;48.16;102269.44;4993364;28;45532;-65
2021/09/30 11:58:11;;;;;;;;;0.75;0.00;;;;;16.77;47.94;102243.06;4948909;28;45757;-66
2021/09/30 12:00:37;;;;;;;;;0.00;0.00;;;;;17.04;47.49;102277.22;4949648;28;45616;-66
2021/09/30 12:03:05;;;;;;;;;0.00;0.00;;;;;16.77;47.44;102230.50;4949401;28;46344;-65
2021/09/30 12:05:36;;;;;;;;;0.50;0.00;;;;;16.95;47.07;102247.84;4948769;28;46972;-65
2021/09/30 12:08:04;;;;;;;;;0.00;0.00;;;;;16.92;47.32;102247.09;4959867;28;46347;-66
2021/09/30 12:10:32;;;;;;;;;0.50;0.50;;;;;17.01;47.40;102258.44;4949456;28;45472;-66
2021/09/30 12:13:12;;;;;;;;;1.00;1.00;;;;;16.88;47.35;102227.44;4949552;28;46558;-66
2021/09/30 12:15:37;;;;;;;;;1.75;0.25;;;;;16.93;46.92;102227.28;4949655;28;45898;-65
2021/09/30 12:18:14;;;;;;;;;1.00;0.00;;;;;16.90;47.73;102206.69;4954038;28;45493;-65
2021/09/30 12:20:57;;;;;;;;;1.00;0.00;;;;;17.18;47.11;102236.25;4959183;28;45470;-66
2021/09/30 12:23:24;;;;;;;;;1.00;0.00;;;;;17.19;46.51;102224.53;4967427;28;48346;-66
2021/09/30 12:25:50;;;;;;;;;1.50;0.00;;;;;17.08;47.16;102194.34;4951418;28;45657;-66
2021/09/30 12:28:16;;;;;;;;;0.00;0.00;;;;;17.10;46.60;102202.38;4954829;28;45868;-66
2021/09/30 12:30:43;;;;;;;;;0.00;0.00;;;;;17.13;46.81;102203.16;4957429;28;45756;-66
2021/09/30 12:33:09;;;;;;;;;0.25;0.00;;;;;17.26;46.44;102211.69;4945081;28;47189;-66
2021/09/30 12:35:38;;;;;;;;;0.00;0.00;;;;;17.15;46.01;102187.78;4961709;28;45261;-66
2021/09/30 12:38:09;;;;;;;;;1.00;0.00;;;;;17.11;46.35;102186.16;4976333;28;45514;-66
2021/09/30 12:40:34;;;;;;;;;0.00;0.00;;;;;17.35;45.86;102216.72;4961474;28;45367;-65
2021/09/30 12:43:04;;;;;;;;;1.00;0.00;;;;;17.10;46.09;102160.09;4979553;28;48462;-66
2021/09/30 12:45:40;;;;;;;;;0.00;0.00;;;;;17.19;46.03;102175.94;4961696;28;45493;-65
2021/09/30 12:48:20;;;;;;;;;0.25;0.25;;;;;17.41;46.19;102203.00;4952817;28;45635;-66
2021/09/30 12:50:57;;;;;;;;;0.00;0.00;;;;;17.48;46.07;102208.19;4958410;28;45535;-66
2021/09/30 12:53:23;;;;;;;;;0.25;0.25;;;;;17.30;45.70;102166.56;4959777;28;47337;-66
2021/09/30 12:55:50;;;;;;;;;0.00;0.00;;;;;17.37;45.16;102170.78;4961970;28;45437;-66
2021/09/30 12:58:28;;;;;;;;;0.00;0.00;;;;;17.25;45.54;102147.84;4998781;28;45528;-66
2021/09/30 13:00:56;;;;;;;;;0.00;0.00;;;;;17.44;45.94;102175.03;4998831;28;45462;-66
2021/09/30 13:03:22;;;;;;;;;0.75;0.75;;;;;17.51;45.60;102173.84;5000464;28;45642;-66
2021/09/30 13:05:57;;;;;;;;;0.25;0.25;;;;;17.42;45.83;102147.19;4974964;28;45427;-66
2021/09/30 13:08:38;;;;;;;;;0.00;0.00;;;;;17.59;45.59;102171.72;4987692;28;45542;-66
2021/09/30 13:11:34;;;;;;;;;3.00;3.00;;;;;17.67;45.27;102174.09;4994930;28;45519;-66
2021/09/30 13:14:24;;;;;;;;;0.25;0.00;;;;;17.66;45.12;102163.38;4987873;28;45513;-66
2021/09/30 13:17:03;;;;;;;;;1.75;0.75;;;;;17.65;45.28;102154.41;4999768;28;45552;-66
2021/09/30 13:19:45;;;;;;;;;0.00;0.00;;;;;17.68;45.19;102159.69;4999617;28;45439;-66
2021/09/30 13:22:20;;;;;;;;;0.00;0.00;;;;;17.53;44.20;102130.59;5000256;28;45481;-66
2021/09/30 13:24:47;;;;;;;;;0.00;0.00;;;;;17.48;44.41;102111.88;5000107;28;45503;-66
2021/09/30 13:27:14;;;;;;;;;0.00;0.00;;;;;17.77;43.42;102156.63;4999076;28;45349;-66
2021/09/30 13:29:40;;;;;;;;;0.00;0.00;;;;;17.62;43.84;102122.09;4967032;28;45346;-66
2021/09/30 13:32:06;;;;;;;;;0.00;0.00;;;;;17.63;43.91;102114.91;4982718;28;45437;-66
2021/09/30 13:34:32;;;;;;;;;0.00;0.00;;;;;17.62;43.67;102108.59;5000521;28;45519;-66
2021/09/30 13:36:57;;;;;;;;;0.00;0.00;;;;;17.85;44.27;102150.03;4982404;28;45816;-66
2021/09/30 13:39:23;;;;;;;;;0.00;0.00;;;;;17.69;43.87;102115.53;4998948;28;45499;-65
2021/09/30 13:41:53;;;;;;;;;0.00;0.00;;;;;17.73;43.53;102108.19;4982122;28;45831;-66
2021/09/30 13:44:19;;;;;;;;;0.00;0.00;;;;;17.76;42.73;102108.06;4981630;28;47798;-66
2021/09/30 13:46:44;;;;;;;;;0.00;0.00;;;;;17.74;43.00;102105.44;4999874;28;45345;-66
2021/09/30 13:49:10;;;;;;;;;1.00;0.00;;;;;17.64;42.70;102068.03;4999954;28;45365;-66
2021/09/30 13:51:35;;;;;;;;;0.00;0.00;;;;;17.78;42.82;102096.25;4998149;28;45433;-66
2021/09/30 13:54:01;;;;;;;;;0.25;0.00;;;;;17.97;42.43;102111.72;4999242;28;45962;-65
2021/09/30 13:56:28;;;;;;;;;0.75;0.25;;;;;17.92;42.37;102097.53;4982095;28;45608;-65
2021/09/30 13:58:54;;;;;;;;;2.25;0.00;;;;;17.98;42.31;102104.50;4981303;28;45324;-66
2021/09/30 14:01:20;;;;;;;;;0.50;0.00;;;;;18.07;42.47;102110.38;4981840;28;45697;-65
2021/09/30 14:03:46;;;;;;;;;0.50;0.00;;;;;18.03;42.39;102097.09;4999329;28;46000;-65
2021/09/30 14:06:12;;;;;;;;;0.00;0.00;;;;;18.11;42.32;102100.34;4987379;28;45438;-65
2021/09/30 14:08:41;;;;;;;;;0.75;0.00;;;;;18.01;42.36;102077.34;5008600;28;45537;-65
2021/09/30 14:11:08;;;;;;;;;0.00;0.00;;;;;17.98;42.35;102059.47;4999132;28;45730;-65
2021/09/30 14:13:34;;;;;;;;;0.00;0.00;;;;;18.05;42.57;102052.84;4981336;28;48486;-65
2021/09/30 14:16:00;;;;;;;;;0.25;0.00;;;;;18.01;42.68;102036.81;4976964;28;45382;-65
2021/09/30 14:18:25;;;;;;;;;0.00;0.00;;;;;18.18;42.41;102065.84;4998801;28;45953;-66
2021/09/30 14:20:51;;;;;;;;;1.00;0.00;;;;;18.19;43.09;102054.06;4998914;28;45547;-65
2021/09/30 14:23:17;;;;;;;;;0.00;0.00;;;;;18.05;42.25;102024.94;4998678;28;45444;-66
2021/09/30 14:25:42;;;;;;;;;1.00;0.00;;;;;18.16;42.45;102038.88;4999570;28;45299;-65
2021/09/30 14:28:08;;;;;;;;;0.00;0.00;;;;;18.25;42.03;102057.38;4976966;28;45446;-65
2021/09/30 14:30:33;;;;;;;;;0.00;0.00;;;;;18.24;42.29;102052.94;4998830;28;45625;-65
2021/09/30 14:32:59;;;;;;;;;1.25;0.00;;;;;18.04;41.96;102004.28;4998472;28;45356;-65
2021/09/30 14:35:25;;;;;;;;;0.00;0.00;;;;;18.07;42.50;102018.53;4981788;28;45422;-65
2021/09/30 14:37:50;;;;;;;;;0.00;0.00;;;;;18.09;41.67;102007.66;4981203;28;45725;-66
2021/09/30 14:40:16;;;;;;;;;0.00;0.00;;;;;18.09;41.90;102007.66;4977988;28;45468;-65
2021/09/30 14:42:42;;;;;;;;;0.00;0.00;;;;;18.08;41.79;102006.78;5007297;28;46438;-65
2021/09/30 14:45:07;;;;;;;;;0.00;0.00;;;;;18.27;42.43;102028.44;4985523;28;45530;-65
2021/09/30 14:47:33;;;;;;;;;0.00;0.00;;;;;18.23;42.73;102020.56;4983891;28;45817;-65
2021/09/30 14:49:59;;;;;;;;;0.00;0.00;;;;;18.26;42.38;102015.91;5003331;28;45408;-65
2021/09/30 14:52:25;;;;;;;;;2.00;0.00;;;;;18.27;42.48;102014.06;5003110;28;45590;-65
2021/09/30 14:54:51;;;;;;;;;2.00;0.00;;;;;18.22;42.04;102011.56;4985295;28;45501;-65
2021/09/30 14:57:17;;;;;;;;;0.00;0.00;;;;;18.10;42.09;101987.81;5002434;28;45266;-65
2021/09/30 14:59:43;;;;;;;;;0.00;0.00;;;;;18.30;42.03;102016.66;5003169;28;45464;-65
2021/09/30 15:02:09;;;;;;;;;1.00;0.00;;;;;18.08;42.22;101974.34;5001737;28;45433;-65
2021/09/30 15:04:35;;;;;;;;;0.00;0.00;;;;;18.25;42.24;101999.75;4999803;28;45590;-65
2021/09/30 15:07:00;;;;;;;;;0.00;0.00;;;;;18.18;41.53;101987.47;4992978;28;45234;-65
2021/09/30 15:09:26;;;;;;;;;0.00;0.00;;;;;18.21;42.28;101987.31;5009782;28;45482;-65
2021/09/30 15:11:52;;;;;;;;;2.50;0.00;;;;;18.10;42.74;101961.66;5001877;28;46491;-66
2021/09/30 15:14:18;;;;;;;;;1.75;0.00;;;;;18.32;41.51;102001.22;4983911;28;45417;-66
2021/09/30 15:17:10;;;;;;;;;0.75;0.75;;;;;18.28;41.63;101986.09;4984442;28;45532;-66
2021/09/30 15:19:47;;;;;;;;;1.00;0.25;;;;;18.15;41.96;101964.16;5002103;28;45520;-66
2021/09/30 15:22:13;;;;;;;;;0.00;0.00;;;;;18.31;41.50;101985.97;5002058;28;46318;-66
2021/09/30 15:24:39;;;;;;;;;0.25;0.25;;;;;18.34;42.18;101985.81;5000073;28;45862;-66
2021/09/30 15:27:05;;;;;;;;;0.00;0.00;;;;;18.30;41.80;101976.09;4998529;28;45816;-66
2021/09/30 15:29:30;;;;;;;;;0.00;0.00;;;;;18.06;41.91;101930.31;5001428;28;45440;-66
2021/09/30 15:31:56;;;;;;;;;0.00;0.00;;;;;18.24;42.00;101957.44;5001886;28;45407;-66
2021/09/30 15:34:21;;;;;;;;;0.00;0.00;;;;;18.09;41.45;101932.00;5001131;28;45416;-66
2021/09/30 15:36:46;;;;;;;;;0.50;0.00;;;;;18.12;41.41;101929.16;4984326;28;45298;-66
2021/09/30 15:39:12;;;;;;;;;0.75;0.00;;;;;18.04;42.01;101916.00;4998865;28;45511;-66
2021/09/30 15:41:37;;;;;;;;;0.75;0.75;;;;;18.33;42.07;101957.91;5004067;28;46173;-66
2021/09/30 15:44:03;;;;;;;;;0.25;0.00;;;;;18.31;41.62;101948.13;5003888;28;45582;-66
2021/09/30 15:46:30;;;;;;;;;0.00;0.00;;;;;18.35;41.68;101956.97;5001471;28;45342;-66
2021/09/30 15:48:55;;;;;;;;;1.00;0.00;;;;;18.33;41.86;101951.63;5000876;28;45677;-66
2021/09/30 15:51:21;;;;;;;;;0.75;0.75;;;;;18.32;41.63;101949.88;4999491;28;45383;-66
2021/09/30 15:53:49;;;;;;;;;1.00;1.00;;;;;18.35;41.93;101951.56;4999449;28;45632;-66
2021/09/30 15:56:15;;;;;;;;;1.00;1.00;;;;;18.31;42.58;101945.44;5000389;28;45483;-66